This is the latest recevied weather packets stored in our database for station/object KI6PPU. If no packets are shown the sender has not sent any weather packets the latest 10 day(s).
| Time | Temp. | Humidity | Pressure | Rain* | Wind** | Luminosity | Snow |
|---|---|---|---|---|---|---|---|
| 1777311742 | 15° C | 71% | 1019.3 hPa | 0 mm | - | 135 W/m² | - |
| 1777311440 | 15° C | 73% | 1019.3 hPa | 0 mm | - | 708 W/m² | - |
| 1777311137 | 15.56° C | 70% | 1019.4 hPa | 0 mm | - | 187 W/m² | - |
| 1777310835 | 14.44° C | 73% | 1019.2 hPa | 0 mm | - | 772 W/m² | - |
| 1777310532 | 14.44° C | 72% | 1019.3 hPa | 0 mm | - | 176 W/m² | - |
| 1777310229 | 16.11° C | 67% | 1019.2 hPa | 0 mm | - | 256 W/m² | - |
| 1777309926 | 16.67° C | 69% | 1019.1 hPa | 0 mm | - | 659 W/m² | - |
| 1777309624 | 15° C | 74% | 1019.1 hPa | 0 mm | - | 634 W/m² | - |
| 1777309321 | 16.11° C | 69% | 1019.1 hPa | 0 mm | - | 598 W/m² | - |
| 1777309020 | 16.11° C | 66% | 1019.2 hPa | 0 mm | - | 619 W/m² | - |
| 1777308716 | 16.11° C | 71% | 1019.1 hPa | 0 mm | - | 444 W/m² | - |
| 1777308410 | 16.67° C | 69% | 1019 hPa | 0 mm | - | 475 W/m² | - |
| 1777308106 | 15.56° C | 72% | 1019 hPa | 0 mm | - | 554 W/m² | - |
| 1777307804 | 15.56° C | 72% | 1018.9 hPa | 0 mm | - | 580 W/m² | - |
| 1777307501 | 16.11° C | 72% | 1019 hPa | 0 mm | - | 502 W/m² | - |
| 1777307198 | 15° C | 73% | 1019.1 hPa | 0 mm | - | 465 W/m² | - |
| 1777306895 | 15° C | 70% | 1018.9 hPa | 0 mm | - | 563 W/m² | - |
| 1777306592 | 15° C | 73% | 1018.9 hPa | 0 mm | - | 504 W/m² | - |
| 1777306288 | 15° C | 75% | 1018.8 hPa | 0 mm | - | 352 W/m² | - |
| 1777305983 | 14.44° C | 73% | 1018.8 hPa | 0 mm | - | 451 W/m² | - |
| 1777305680 | 13.89° C | 74% | 1018.6 hPa | 0 mm | - | 412 W/m² | - |
| 1777305376 | 13.89° C | 75% | 1018.6 hPa | 0 mm | - | 330 W/m² | - |
| 1777305076 | 13.33° C | 78% | 1018.8 hPa | 0 mm | - | 318 W/m² | - |
| 1777304770 | 12.22° C | 79% | 1018.6 hPa | 0 mm | - | 290 W/m² | - |
| 1777304468 | 12.78° C | 79% | 1018.9 hPa | 0 mm | - | 312 W/m² | - |
* Rain latest hour (hover to see other rain measurements)
** Current wind speed in m/s (hover to see current wind gust speed)